Time;durP1;ratioP1;P1;durP2;ratioP2;P2;SDS_P1;SDS_P2;PMS_P1;PMS_P2;Temp;Humidity;BMP_temperature;BMP_pressure;BME280_temperature;BME280_humidity;BME280_pressure;Samples;Min_cycle;Max_cycle;Signal;HPM_P1;HPM_P2
2021/04/19 00:01:55;;;;;;;40.50;24.60;;;;;;;;;;5044890;28;20467;-95
2021/04/19 00:04:21;;;;;;;37.10;25.17;;;;;;;;;;5044511;28;20506;-94
2021/04/19 00:06:47;;;;;;;35.43;21.87;;;;;;;;;;5043802;28;20474;-95
2021/04/19 00:09:13;;;;;;;31.97;19.50;;;;;;;;;;5044081;28;20450;-94
2021/04/19 00:11:40;;;;;;;30.43;16.90;;;;;;;;;;5043352;28;20450;-93
2021/04/19 00:14:06;;;;;;;34.37;20.33;;;;;;;;;;5043686;28;20458;-95
2021/04/19 00:16:32;;;;;;;32.30;21.30;;;;;;;;;;5044142;28;20527;-95
2021/04/19 00:18:58;;;;;;;32.57;21.03;;;;;;;;;;5043940;28;20451;-95
2021/04/19 00:21:24;;;;;;;32.13;19.33;;;;;;;;;;5044430;28;21016;-95
2021/04/19 00:23:50;;;;;;;27.43;17.70;;;;;;;;;;5044545;28;20792;-94
2021/04/19 00:26:17;;;;;;;28.97;18.63;;;;;;;;;;5044581;28;20459;-93
2021/04/19 00:28:44;;;;;;;29.30;19.07;;;;;;;;;;5044056;28;20454;-93
2021/04/19 00:31:10;;;;;;;35.73;19.63;;;;;;;;;;5044794;28;20947;-92
2021/04/19 00:33:36;;;;;;;32.97;18.57;;;;;;;;;;5045433;28;20439;-95
2021/04/19 00:36:02;;;;;;;31.47;21.57;;;;;;;;;;5044537;28;21090;-95
2021/04/19 00:38:28;;;;;;;28.50;19.60;;;;;;;;;;5044367;28;20478;-94
2021/04/19 00:40:54;;;;;;;27.50;18.63;;;;;;;;;;5044771;28;20485;-95
2021/04/19 00:43:30;;;;;;;27.37;18.87;;;;;;;;;;5044755;28;20447;-94
2021/04/19 00:46:02;;;;;;;28.80;18.77;;;;;;;;;;5045415;28;20449;-94
2021/04/19 00:48:28;;;;;;;28.30;17.97;;;;;;;;;;5044831;28;20490;-94
2021/04/19 00:50:55;;;;;;;31.17;19.40;;;;;;;;;;5042017;28;20458;-95
2021/04/19 00:53:22;;;;;;;30.73;19.87;;;;;;;;;;5042225;28;20858;-93
2021/04/19 00:55:48;;;;;;;32.60;20.53;;;;;;;;;;5044080;28;20494;-94
2021/04/19 00:58:14;;;;;;;33.20;20.47;;;;;;;;;;5043423;28;20462;-94
2021/04/19 01:00:40;;;;;;;33.37;21.60;;;;;;;;;;5043868;28;20611;-94
2021/04/19 01:03:07;;;;;;;33.30;21.23;;;;;;;;;;5044180;28;20963;-94
2021/04/19 01:05:34;;;;;;;32.57;21.07;;;;;;;;;;5044558;28;20455;-94
2021/04/19 01:08:01;;;;;;;33.13;21.60;;;;;;;;;;5044474;28;20451;-94
2021/04/19 01:10:27;;;;;;;34.93;21.13;;;;;;;;;;5042546;28;20443;-94
2021/04/19 01:12:53;;;;;;;35.70;21.70;;;;;;;;;;5042120;28;20459;-95
2021/04/19 01:15:20;;;;;;;31.93;20.80;;;;;;;;;;5044570;28;20965;-95
2021/04/19 01:17:46;;;;;;;38.70;23.23;;;;;;;;;;5044756;28;20442;-95
2021/04/19 01:20:15;;;;;;;35.73;24.50;;;;;;;;;;5042336;28;20505;-95
2021/04/19 01:22:43;;;;;;;37.30;23.83;;;;;;;;;;5042409;28;21027;-96
2021/04/19 01:25:10;;;;;;;40.47;25.63;;;;;;;;;;5044251;28;20482;-95
2021/04/19 01:27:36;;;;;;;42.87;25.47;;;;;;;;;;5044485;28;20977;-95
2021/04/19 01:30:02;;;;;;;41.90;25.03;;;;;;;;;;5044089;28;20984;-95
2021/04/19 01:32:28;;;;;;;44.83;25.87;;;;;;;;;;5034584;28;20819;-95
2021/04/19 01:34:58;;;;;;;36.80;22.97;;;;;;;;;;5043927;28;20451;-95
2021/04/19 01:37:24;;;;;;;35.73;22.80;;;;;;;;;;5043159;28;20507;-95
2021/04/19 01:39:51;;;;;;;40.23;22.97;;;;;;;;;;5042365;28;20991;-95
2021/04/19 01:42:17;;;;;;;32.33;21.10;;;;;;;;;;5041550;28;20537;-95
2021/04/19 01:44:43;;;;;;;30.77;21.80;;;;;;;;;;5043252;28;21018;-95
2021/04/19 01:47:09;;;;;;;30.60;19.07;;;;;;;;;;5043483;28;20485;-96
2021/04/19 01:49:35;;;;;;;33.47;20.80;;;;;;;;;;5025153;28;20446;-96
2021/04/19 01:52:01;;;;;;;30.40;19.83;;;;;;;;;;5042418;28;20458;-94
2021/04/19 01:54:27;;;;;;;30.80;19.40;;;;;;;;;;5043572;28;20447;-95
2021/04/19 01:59:40;;;;;;;42.17;20.90;;;;;;;;;;5042602;28;20958;-96
2021/04/19 02:02:08;;;;;;;33.20;19.77;;;;;;;;;;5041410;28;20454;-94
2021/04/19 02:04:40;;;;;;;34.63;20.17;;;;;;;;;;5043046;28;20477;-94
2021/04/19 02:07:08;;;;;;;31.03;20.30;;;;;;;;;;5043308;28;20482;-96
2021/04/19 02:09:37;;;;;;;30.00;19.80;;;;;;;;;;5041762;28;20973;-93
2021/04/19 02:12:07;;;;;;;33.53;21.00;;;;;;;;;;5040381;28;20858;-93
2021/04/19 02:14:42;;;;;;;33.60;21.50;;;;;;;;;;5042502;28;20458;-94
2021/04/19 02:17:12;;;;;;;30.30;19.53;;;;;;;;;;5039617;28;20493;-93
2021/04/19 02:19:41;;;;;;;40.63;20.20;;;;;;;;;;5042797;28;20489;-94
2021/04/19 02:22:09;;;;;;;33.40;20.70;;;;;;;;;;5042595;28;20491;-93
2021/04/19 02:24:39;;;;;;;29.50;18.63;;;;;;;;;;5042696;28;20447;-94
2021/04/19 02:27:08;;;;;;;28.20;17.93;;;;;;;;;;5042944;28;20454;-94
2021/04/19 02:29:37;;;;;;;38.27;20.87;;;;;;;;;;5041966;28;20789;-95
2021/04/19 02:32:04;;;;;;;31.97;19.80;;;;;;;;;;5041663;28;20846;-95
2021/04/19 02:34:31;;;;;;;29.90;18.37;;;;;;;;;;5042498;28;21023;-94
2021/04/19 02:37:01;;;;;;;31.03;20.30;;;;;;;;;;5042812;28;20499;-94
2021/04/19 02:39:28;;;;;;;28.50;19.03;;;;;;;;;;5025355;28;20538;-95
2021/04/19 02:41:54;;;;;;;34.80;21.70;;;;;;;;;;5042377;28;20451;-94
2021/04/19 02:44:22;;;;;;;39.03;26.33;;;;;;;;;;5042240;28;20450;-94
2021/04/19 02:46:49;;;;;;;44.80;30.37;;;;;;;;;;5042044;28;20465;-95
2021/04/19 02:49:15;;;;;;;45.57;31.73;;;;;;;;;;5042427;28;20497;-95
2021/04/19 02:51:42;;;;;;;53.03;36.47;;;;;;;;;;5042789;28;20463;-94
2021/04/19 02:54:09;;;;;;;48.63;33.07;;;;;;;;;;5041844;28;20475;-95
2021/04/19 02:56:36;;;;;;;47.10;31.50;;;;;;;;;;5041245;28;20495;-95
2021/04/19 02:59:04;;;;;;;47.80;30.87;;;;;;;;;;5041784;28;20524;-95
2021/04/19 03:01:33;;;;;;;47.87;31.93;;;;;;;;;;5042338;28;20451;-96
2021/04/19 03:04:00;;;;;;;49.20;31.70;;;;;;;;;;5042191;28;20451;-95
2021/04/19 03:06:27;;;;;;;48.43;31.70;;;;;;;;;;5042673;28;20462;-95
2021/04/19 03:09:00;;;;;;;52.90;31.80;;;;;;;;;;5044040;28;20447;-97
2021/04/19 03:11:28;;;;;;;46.43;30.40;;;;;;;;;;5046098;28;20458;-95
2021/04/19 03:13:55;;;;;;;41.80;28.17;;;;;;;;;;5044789;28;20486;-96
2021/04/19 03:16:22;;;;;;;40.77;28.27;;;;;;;;;;5035875;28;20506;-95
2021/04/19 03:18:49;;;;;;;43.83;29.63;;;;;;;;;;5040299;28;20478;-96
2021/04/19 03:21:18;;;;;;;43.80;28.17;;;;;;;;;;5042531;28;20493;-96
2021/04/19 03:23:45;;;;;;;38.17;25.37;;;;;;;;;;5043174;28;20482;-96
2021/04/19 03:26:13;;;;;;;37.73;25.73;;;;;;;;;;5042810;28;20470;-93
2021/04/19 03:28:40;;;;;;;34.30;23.10;;;;;;;;;;5042249;28;20454;-96
2021/04/19 03:31:07;;;;;;;39.33;24.67;;;;;;;;;;5051247;28;20439;-96
2021/04/19 03:33:37;;;;;;;38.03;23.37;;;;;;;;;;5032378;28;20450;-96
2021/04/19 03:36:05;;;;;;;37.43;22.03;;;;;;;;;;5046210;28;20471;-96
2021/04/19 03:38:32;;;;;;;39.70;24.03;;;;;;;;;;5059003;28;20443;-95
2021/04/19 03:40:58;;;;;;;30.60;21.73;;;;;;;;;;5059266;28;20458;-94
2021/04/19 03:51:36;;;;;;;35.50;23.23;;;;;;;;;;5010037;28;20500;-96
2021/04/19 03:54:03;;;;;;;34.00;22.67;;;;;;;;;;5020304;28;20488;-95
2021/04/19 03:56:31;;;;;;;34.47;23.33;;;;;;;;;;5021790;28;20486;-94
2021/04/19 03:58:58;;;;;;;34.67;22.60;;;;;;;;;;5014447;28;20447;-94
2021/04/19 04:01:24;;;;;;;36.30;22.00;;;;;;;;;;5012987;28;20471;-94
2021/04/19 04:03:51;;;;;;;31.00;21.13;;;;;;;;;;5013395;28;20560;-93
2021/04/19 04:06:17;;;;;;;33.23;27.80;;;;;;;;;;5013424;28;20471;-93
2021/04/19 04:08:44;;;;;;;47.07;35.57;;;;;;;;;;5015792;28;20447;-92
2021/04/19 04:11:11;;;;;;;50.70;37.87;;;;;;;;;;5004221;28;20455;-94
2021/04/19 04:13:37;;;;;;;37.93;28.97;;;;;;;;;;4999130;28;20457;-93
2021/04/19 04:16:03;;;;;;;35.80;24.70;;;;;;;;;;5011936;28;20500;-96
2021/04/19 04:18:30;;;;;;;43.90;26.53;;;;;;;;;;5010342;28;20444;-96
2021/04/19 04:20:56;;;;;;;36.30;25.53;;;;;;;;;;5012805;28;20464;-95
2021/04/19 04:23:22;;;;;;;37.80;24.33;;;;;;;;;;5012388;28;20443;-93
2021/04/19 04:25:50;;;;;;;31.40;21.50;;;;;;;;;;5012224;28;20447;-94
2021/04/19 04:28:16;;;;;;;31.93;23.23;;;;;;;;;;5007129;28;20465;-95
2021/04/19 04:30:42;;;;;;;32.40;22.33;;;;;;;;;;5018343;28;20459;-96
2021/04/19 04:33:09;;;;;;;31.43;21.33;;;;;;;;;;5014879;28;20457;-95
2021/04/19 04:35:37;;;;;;;38.53;24.80;;;;;;;;;;5017810;28;20459;-96
2021/04/19 04:38:03;;;;;;;36.73;23.87;;;;;;;;;;5016884;28;20483;-95
2021/04/19 04:40:30;;;;;;;42.07;23.87;;;;;;;;;;5014343;28;20451;-94
2021/04/19 04:42:58;;;;;;;41.03;25.37;;;;;;;;;;5010408;28;20509;-94
2021/04/19 04:45:24;;;;;;;40.20;25.40;;;;;;;;;;5014961;28;20437;-94
2021/04/19 04:47:54;;;;;;;36.90;25.43;;;;;;;;;;5011500;28;20463;-96
2021/04/19 04:50:22;;;;;;;39.53;27.87;;;;;;;;;;5010910;28;21000;-95
2021/04/19 04:52:51;;;;;;;44.23;31.03;;;;;;;;;;5015222;28;20480;-95
2021/04/19 04:55:17;;;;;;;48.00;32.30;;;;;;;;;;5014866;28;20516;-95
2021/04/19 04:57:45;;;;;;;45.10;30.40;;;;;;;;;;5011573;28;20496;-95
2021/04/19 05:00:12;;;;;;;48.60;32.00;;;;;;;;;;5008857;28;20479;-95
2021/04/19 05:02:38;;;;;;;49.33;33.10;;;;;;;;;;5015409;28;20463;-96
2021/04/19 05:05:06;;;;;;;47.83;30.90;;;;;;;;;;5016324;28;20472;-95
2021/04/19 05:07:33;;;;;;;46.70;31.97;;;;;;;;;;5015696;28;20469;-96
2021/04/19 05:09:59;;;;;;;42.70;29.90;;;;;;;;;;5016725;28;20449;-94
2021/04/19 05:12:25;;;;;;;41.17;27.83;;;;;;;;;;5017536;28;20453;-95
2021/04/19 05:14:58;;;;;;;50.57;34.00;;;;;;;;;;5016628;28;20440;-95
2021/04/19 05:17:28;;;;;;;44.93;30.97;;;;;;;;;;5018798;28;20492;-96
2021/04/19 05:19:54;;;;;;;44.60;29.73;;;;;;;;;;5012843;28;20471;-96
2021/04/19 05:22:20;;;;;;;48.83;31.73;;;;;;;;;;5015576;28;20457;-95
2021/04/19 05:24:46;;;;;;;34.27;23.90;;;;;;;;;;5016507;28;20452;-95
2021/04/19 05:27:12;;;;;;;36.27;24.70;;;;;;;;;;5015869;28;20449;-95
2021/04/19 05:29:40;;;;;;;37.00;24.83;;;;;;;;;;5002336;28;20472;-95
2021/04/19 05:32:10;;;;;;;34.47;23.27;;;;;;;;;;5008111;28;20475;-96
2021/04/19 05:34:47;;;;;;;35.30;23.77;;;;;;;;;;5021593;28;20455;-96
2021/04/19 05:37:34;;;;;;;35.60;25.23;;;;;;;;;;5001091;28;20480;-96
2021/04/19 05:40:08;;;;;;;35.80;22.87;;;;;;;;;;5015429;28;20444;-96
2021/04/19 05:42:35;;;;;;;41.10;24.00;;;;;;;;;;5016415;28;20471;-95
2021/04/19 05:45:01;;;;;;;38.10;24.27;;;;;;;;;;5014237;28;20459;-96
2021/04/19 05:47:27;;;;;;;35.30;22.97;;;;;;;;;;5023195;28;20448;-95
2021/04/19 05:52:44;;;;;;;40.03;26.87;;;;;;;;;;5015906;28;20483;-96
2021/04/19 05:55:11;;;;;;;64.30;46.50;;;;;;;;;;5015985;28;20496;-96
2021/04/19 05:57:42;;;;;;;56.10;40.97;;;;;;;;;;4998458;28;20503;-96
2021/04/19 06:00:15;;;;;;;54.57;40.17;;;;;;;;;;4999630;28;20445;-96
2021/04/19 06:02:43;;;;;;;64.03;46.47;;;;;;;;;;4990321;28;20461;-96
2021/04/19 06:05:15;;;;;;;67.53;50.43;;;;;;;;;;5003505;28;20449;-96
2021/04/19 06:07:43;;;;;;;60.33;43.47;;;;;;;;;;5008967;28;20453;-96
2021/04/19 06:10:12;;;;;;;51.63;34.40;;;;;;;;;;5016435;28;20433;-96
2021/04/19 06:12:42;;;;;;;38.13;25.30;;;;;;;;;;5007393;28;20517;-96
2021/04/19 06:15:13;;;;;;;36.10;23.30;;;;;;;;;;5003572;28;20468;-95
2021/04/19 06:17:40;;;;;;;38.90;24.53;;;;;;;;;;5000274;28;20495;-94
2021/04/19 06:20:12;;;;;;;35.90;22.97;;;;;;;;;;4997144;28;20438;-96
2021/04/19 06:22:39;;;;;;;36.50;24.77;;;;;;;;;;5010758;28;20448;-96
2021/04/19 06:25:09;;;;;;;36.17;23.00;;;;;;;;;;5001558;28;21008;-96
2021/04/19 06:27:35;;;;;;;35.90;22.33;;;;;;;;;;5006549;28;20435;-96
2021/04/19 06:30:11;;;;;;;34.23;22.47;;;;;;;;;;5015904;28;20444;-95
2021/04/19 06:32:38;;;;;;;32.63;22.03;;;;;;;;;;5010454;28;20452;-96
2021/04/19 06:35:04;;;;;;;33.53;20.77;;;;;;;;;;4995717;28;20441;-95
2021/04/19 06:37:32;;;;;;;37.80;22.30;;;;;;;;;;5008923;28;20495;-95
2021/04/19 06:39:58;;;;;;;33.03;21.43;;;;;;;;;;5002541;28;20447;-96
2021/04/19 06:42:25;;;;;;;34.40;22.80;;;;;;;;;;5014892;28;20465;-96
2021/04/19 06:44:51;;;;;;;29.50;20.30;;;;;;;;;;5013127;28;20484;-95
2021/04/19 06:47:18;;;;;;;27.93;20.40;;;;;;;;;;5013896;28;20461;-94
2021/04/19 06:49:46;;;;;;;35.63;23.63;;;;;;;;;;5020604;28;20478;-96
2021/04/19 06:58:35;;;;;;;36.30;22.97;;;;;;;;;;5032299;23;20514;-96
2021/04/19 07:01:02;;;;;;;36.37;23.80;;;;;;;;;;5035490;28;20435;-96
2021/04/19 07:03:31;;;;;;;35.20;23.10;;;;;;;;;;5032769;28;20455;-96
2021/04/19 07:06:01;;;;;;;34.07;21.80;;;;;;;;;;5077768;22;20451;-96
2021/04/19 07:08:30;;;;;;;30.40;21.33;;;;;;;;;;5028337;28;20486;-96
2021/04/19 07:11:04;;;;;;;31.67;21.40;;;;;;;;;;5044170;28;20443;-96
2021/04/19 07:13:31;;;;;;;29.17;19.63;;;;;;;;;;5041985;28;20458;-96
2021/04/19 07:18:39;;;;;;;27.93;20.57;;;;;;;;;;5052865;28;20825;-96
2021/04/19 07:21:16;;;;;;;28.23;19.40;;;;;;;;;;5040241;28;20477;-96
2021/04/19 07:23:43;;;;;;;27.77;19.57;;;;;;;;;;5054101;28;20435;-96
2021/04/19 07:26:10;;;;;;;32.80;20.90;;;;;;;;;;5052117;28;20442;-96
2021/04/19 07:28:44;;;;;;;33.20;21.97;;;;;;;;;;5050888;28;20458;-96
2021/04/19 07:31:11;;;;;;;31.10;20.10;;;;;;;;;;5049787;28;20529;-95
2021/04/19 07:33:38;;;;;;;37.00;21.30;;;;;;;;;;5046276;28;20450;-96
2021/04/19 07:36:37;;;;;;;31.30;21.73;;;;;;;;;;5051425;28;20447;-96
2021/04/19 07:39:25;;;;;;;33.30;22.07;;;;;;;;;;5042862;28;20443;-96
2021/04/19 07:41:52;;;;;;;32.60;21.97;;;;;;;;;;5046660;28;20499;-95
2021/04/19 07:44:38;;;;;;;36.67;24.10;;;;;;;;;;5045533;28;20465;-96
2021/04/19 07:47:19;;;;;;;32.27;23.17;;;;;;;;;;5045303;28;20455;-95
2021/04/19 07:49:55;;;;;;;33.23;22.60;;;;;;;;;;5025490;28;20462;-95
2021/04/19 07:52:22;;;;;;;26.97;20.60;;;;;;;;;;5034527;28;20446;-96
2021/04/19 07:55:02;;;;;;;29.00;20.73;;;;;;;;;;5025321;28;20454;-96
2021/04/19 07:57:28;;;;;;;28.40;20.57;;;;;;;;;;5038665;28;20498;-95
2021/04/19 07:59:54;;;;;;;31.07;22.57;;;;;;;;;;5041949;28;20451;-94
2021/04/19 08:02:21;;;;;;;29.30;21.70;;;;;;;;;;5040799;28;20466;-95
2021/04/19 08:04:48;;;;;;;33.90;22.03;;;;;;;;;;5040226;28;20533;-92
2021/04/19 08:07:21;;;;;;;31.20;21.37;;;;;;;;;;5041410;28;20498;-90
2021/04/19 08:09:54;;;;;;;27.00;19.90;;;;;;;;;;5042675;28;20462;-90
2021/04/19 08:12:30;;;;;;;30.40;21.90;;;;;;;;;;5046899;28;21274;-89
2021/04/19 08:14:56;;;;;;;26.17;21.30;;;;;;;;;;5037208;28;20454;-90
2021/04/19 08:17:26;;;;;;;31.00;22.97;;;;;;;;;;5045497;28;20494;-90
2021/04/19 08:19:52;;;;;;;33.13;24.40;;;;;;;;;;5039790;28;20959;-90
2021/04/19 08:22:19;;;;;;;41.97;28.10;;;;;;;;;;5044561;28;20478;-91
2021/04/19 08:24:46;;;;;;;39.53;28.53;;;;;;;;;;5044354;28;20459;-93
2021/04/19 08:27:20;;;;;;;39.57;26.40;;;;;;;;;;5041291;28;20472;-89
2021/04/19 08:29:47;;;;;;;38.57;28.17;;;;;;;;;;5043425;28;20451;-90
2021/04/19 08:32:13;;;;;;;35.57;24.80;;;;;;;;;;5044724;28;20456;-91
2021/04/19 08:34:39;;;;;;;34.83;23.30;;;;;;;;;;5044892;28;20444;-91
2021/04/19 08:37:08;;;;;;;33.37;23.13;;;;;;;;;;5043600;28;20526;-93
2021/04/19 08:39:34;;;;;;;29.07;22.90;;;;;;;;;;5044572;28;20478;-90
2021/04/19 08:42:02;;;;;;;32.43;22.50;;;;;;;;;;5043961;28;21026;-90
2021/04/19 08:44:31;;;;;;;33.53;22.63;;;;;;;;;;5044963;28;20444;-89
2021/04/19 08:46:57;;;;;;;28.20;20.67;;;;;;;;;;5045182;28;20458;-90
2021/04/19 08:49:23;;;;;;;29.13;21.73;;;;;;;;;;5044032;28;20451;-90
2021/04/19 08:51:49;;;;;;;32.73;22.50;;;;;;;;;;5042661;28;20519;-91
2021/04/19 08:54:15;;;;;;;29.83;22.30;;;;;;;;;;5043362;28;20853;-91
2021/04/19 08:56:41;;;;;;;32.00;22.73;;;;;;;;;;5044665;28;20495;-92
2021/04/19 08:59:08;;;;;;;30.83;22.47;;;;;;;;;;5043307;28;20459;-92
2021/04/19 09:01:34;;;;;;;29.70;23.40;;;;;;;;;;5044404;28;20452;-93
2021/04/19 09:04:04;;;;;;;30.37;22.67;;;;;;;;;;5044440;28;20499;-92
2021/04/19 09:06:43;;;;;;;30.60;22.03;;;;;;;;;;5044514;28;20490;-91
2021/04/19 09:09:12;;;;;;;29.53;23.00;;;;;;;;;;5043499;28;20464;-91
2021/04/19 09:11:38;;;;;;;29.37;20.13;;;;;;;;;;5043311;28;20451;-92
2021/04/19 09:14:05;;;;;;;30.37;21.97;;;;;;;;;;5042999;28;20460;-93
2021/04/19 09:16:36;;;;;;;32.57;24.20;;;;;;;;;;5043199;28;20491;-93
2021/04/19 09:19:03;;;;;;;28.43;21.07;;;;;;;;;;5034223;28;20444;-93
2021/04/19 09:21:34;;;;;;;30.57;21.10;;;;;;;;;;5041299;28;20449;-93
2021/04/19 09:24:00;;;;;;;25.40;19.17;;;;;;;;;;5043861;28;20449;-94
2021/04/19 09:26:43;;;;;;;22.97;18.30;;;;;;;;;;5043370;28;20467;-94
2021/04/19 09:29:10;;;;;;;23.57;17.43;;;;;;;;;;5046743;28;20453;-93
2021/04/19 09:31:54;;;;;;;24.23;18.60;;;;;;;;;;5041416;28;20527;-94
2021/04/19 09:34:35;;;;;;;25.57;19.13;;;;;;;;;;5034548;28;20471;-94
2021/04/19 09:37:01;;;;;;;23.70;19.57;;;;;;;;;;5041446;28;20491;-93
2021/04/19 09:39:44;;;;;;;27.00;20.43;;;;;;;;;;5042372;28;20460;-94
2021/04/19 09:42:10;;;;;;;24.87;18.57;;;;;;;;;;5043351;28;20456;-93
2021/04/19 09:44:48;;;;;;;27.93;19.63;;;;;;;;;;5042400;28;20464;-94
2021/04/19 09:47:36;;;;;;;32.83;20.70;;;;;;;;;;5042083;28;20444;-92
2021/04/19 09:50:04;;;;;;;30.03;21.70;;;;;;;;;;5041595;28;20484;-93
2021/04/19 09:52:30;;;;;;;32.33;22.50;;;;;;;;;;5041727;28;20460;-92
2021/04/19 09:54:59;;;;;;;26.93;20.20;;;;;;;;;;5030947;28;20514;-92
2021/04/19 09:57:26;;;;;;;31.87;23.60;;;;;;;;;;5038198;28;20501;-92
2021/04/19 09:59:52;;;;;;;25.90;19.37;;;;;;;;;;5043143;28;20444;-92
2021/04/19 10:02:18;;;;;;;29.00;21.53;;;;;;;;;;5043079;28;20447;-92
2021/04/19 10:04:45;;;;;;;27.20;21.17;;;;;;;;;;5042250;28;20449;-93
2021/04/19 10:07:13;;;;;;;27.60;20.73;;;;;;;;;;5040856;28;21025;-92
2021/04/19 10:09:41;;;;;;;26.13;19.90;;;;;;;;;;5025257;28;20454;-92
2021/04/19 10:12:08;;;;;;;27.17;21.00;;;;;;;;;;5042752;28;20460;-93
2021/04/19 10:14:35;;;;;;;25.27;19.30;;;;;;;;;;5043790;28;20437;-94
2021/04/19 10:17:12;;;;;;;27.77;20.23;;;;;;;;;;5043639;28;20496;-94
2021/04/19 10:19:38;;;;;;;24.47;19.50;;;;;;;;;;5027369;28;20430;-95
2021/04/19 10:22:05;;;;;;;25.33;18.17;;;;;;;;;;5039208;28;20453;-94
2021/04/19 10:24:32;;;;;;;18.43;15.37;;;;;;;;;;5048030;28;20461;-95
2021/04/19 10:27:02;;;;;;;21.27;16.97;;;;;;;;;;5050069;28;20466;-96
2021/04/19 10:29:28;;;;;;;19.83;15.80;;;;;;;;;;5051172;28;20464;-96
2021/04/19 10:31:59;;;;;;;17.53;14.73;;;;;;;;;;5055110;28;20445;-96
2021/04/19 10:34:26;;;;;;;19.33;14.37;;;;;;;;;;5047770;28;20966;-96
2021/04/19 10:36:53;;;;;;;18.20;15.17;;;;;;;;;;5050048;28;20493;-95
2021/04/19 10:39:21;;;;;;;17.83;14.00;;;;;;;;;;5044905;28;20485;-96
2021/04/19 10:41:48;;;;;;;19.87;15.70;;;;;;;;;;5044073;28;20487;-96
2021/04/19 10:44:16;;;;;;;21.30;16.93;;;;;;;;;;5045386;28;20858;-96
2021/04/19 10:46:42;;;;;;;23.63;18.47;;;;;;;;;;5043576;28;20455;-96
2021/04/19 10:49:19;;;;;;;23.33;18.70;;;;;;;;;;5042052;28;20490;-94
2021/04/19 10:51:50;;;;;;;25.03;17.53;;;;;;;;;;5039624;28;20447;-94
2021/04/19 10:54:16;;;;;;;21.63;17.87;;;;;;;;;;5040772;28;20458;-95
2021/04/19 10:56:43;;;;;;;20.47;17.53;;;;;;;;;;5039144;28;20475;-94
2021/04/19 10:59:11;;;;;;;21.27;16.70;;;;;;;;;;5041443;28;21255;-91
2021/04/19 11:01:38;;;;;;;20.70;16.60;;;;;;;;;;5042924;28;20451;-90
2021/04/19 11:04:04;;;;;;;17.70;15.10;;;;;;;;;;5042279;28;20469;-93
2021/04/19 11:06:31;;;;;;;16.97;14.23;;;;;;;;;;5041824;28;20493;-94
2021/04/19 11:08:57;;;;;;;19.77;15.57;;;;;;;;;;5041720;28;20451;-92
2021/04/19 11:11:28;;;;;;;19.67;16.57;;;;;;;;;;5041561;28;20447;-89
2021/04/19 11:13:55;;;;;;;14.90;13.07;;;;;;;;;;5041773;28;20446;-92
2021/04/19 11:16:22;;;;;;;13.70;12.07;;;;;;;;;;5039986;28;20451;-91
2021/04/19 11:18:48;;;;;;;16.33;12.63;;;;;;;;;;5033719;28;20447;-92
2021/04/19 11:21:27;;;;;;;13.27;11.87;;;;;;;;;;5040306;28;20446;-91
2021/04/19 11:24:03;;;;;;;15.90;12.97;;;;;;;;;;5037605;28;20534;-92
2021/04/19 11:26:31;;;;;;;15.90;12.30;;;;;;;;;;5041509;28;20528;-92
2021/04/19 11:28:57;;;;;;;14.30;12.80;;;;;;;;;;5041062;28;20458;-92
2021/04/19 11:31:24;;;;;;;15.87;12.60;;;;;;;;;;5040243;28;20451;-92
2021/04/19 11:34:05;;;;;;;11.90;10.60;;;;;;;;;;5040400;28;20447;-93
2021/04/19 11:36:34;;;;;;;12.40;10.70;;;;;;;;;;5039861;28;20459;-94
2021/04/19 11:39:09;;;;;;;12.63;11.33;;;;;;;;;;5031958;28;20467;-93
2021/04/19 11:41:37;;;;;;;13.87;11.00;;;;;;;;;;5042856;28;20442;-95
2021/04/19 11:44:03;;;;;;;12.00;10.80;;;;;;;;;;5044697;28;20443;-94
2021/04/19 11:46:30;;;;;;;11.63;10.43;;;;;;;;;;5044959;28;20455;-94
2021/04/19 11:48:56;;;;;;;10.37;9.27;;;;;;;;;;5045213;28;20478;-96
2021/04/19 11:51:22;;;;;;;10.27;9.23;;;;;;;;;;5044376;28;20434;-95
2021/04/19 11:53:48;;;;;;;10.40;9.40;;;;;;;;;;5046765;28;20493;-94
2021/04/19 11:56:16;;;;;;;10.80;9.37;;;;;;;;;;5046542;28;20462;-93
2021/04/19 11:58:44;;;;;;;8.90;7.87;;;;;;;;;;5050789;28;20459;-95
2021/04/19 12:01:12;;;;;;;9.80;8.80;;;;;;;;;;5050215;28;20454;-96
2021/04/19 12:03:40;;;;;;;9.50;8.50;;;;;;;;;;5028884;28;20478;-96
2021/04/19 12:06:08;;;;;;;11.90;8.93;;;;;;;;;;5052691;28;20438;-96
2021/04/19 12:08:34;;;;;;;11.00;9.80;;;;;;;;;;5048773;28;20451;-96
2021/04/19 12:11:03;;;;;;;8.20;7.40;;;;;;;;;;5049043;28;20616;-96
2021/04/19 12:13:29;;;;;;;8.00;6.97;;;;;;;;;;5046493;28;20474;-96
2021/04/19 12:15:55;;;;;;;8.30;5.80;;;;;;;;;;5046739;28;20438;-95
2021/04/19 12:18:22;;;;;;;9.70;8.70;;;;;;;;;;5045497;28;20501;-93
2021/04/19 12:20:50;;;;;;;13.43;10.23;;;;;;;;;;5043840;28;20458;-96
2021/04/19 12:23:16;;;;;;;13.27;10.50;;;;;;;;;;5040430;28;20457;-94
2021/04/19 12:25:42;;;;;;;11.67;10.10;;;;;;;;;;5044252;28;20477;-95
2021/04/19 12:28:08;;;;;;;11.00;9.60;;;;;;;;;;5044098;28;20462;-92
2021/04/19 12:30:35;;;;;;;11.40;9.03;;;;;;;;;;5044802;28;20497;-96
2021/04/19 12:33:01;;;;;;;14.03;9.90;;;;;;;;;;5044323;28;20551;-95
2021/04/19 12:35:27;;;;;;;12.30;10.23;;;;;;;;;;5045508;28;20442;-94
2021/04/19 12:37:54;;;;;;;10.53;8.90;;;;;;;;;;5043125;28;20493;-96
2021/04/19 12:40:21;;;;;;;11.03;9.43;;;;;;;;;;5023237;28;20443;-96
2021/04/19 12:42:49;;;;;;;11.30;9.97;;;;;;;;;;5047422;28;20486;-96
2021/04/19 12:45:20;;;;;;;12.53;9.57;;;;;;;;;;5045989;28;20458;-96
2021/04/19 12:47:46;;;;;;;12.57;10.67;;;;;;;;;;5043519;28;20470;-96
2021/04/19 12:50:13;;;;;;;11.80;10.30;;;;;;;;;;5047345;28;20474;-96
2021/04/19 12:52:41;;;;;;;12.43;10.13;;;;;;;;;;5046472;28;20447;-96
2021/04/19 12:55:12;;;;;;;11.23;9.83;;;;;;;;;;5047946;28;20459;-96
2021/04/19 12:57:38;;;;;;;9.87;8.87;;;;;;;;;;5045996;28;20482;-94
2021/04/19 13:00:05;;;;;;;11.00;8.77;;;;;;;;;;5057725;28;20454;-96
2021/04/19 13:02:31;;;;;;;9.20;8.30;;;;;;;;;;5045554;28;20530;-96
2021/04/19 13:04:57;;;;;;;10.17;8.03;;;;;;;;;;5045812;28;20482;-96
2021/04/19 13:07:23;;;;;;;8.73;7.83;;;;;;;;;;5048106;28;20892;-96
2021/04/19 13:09:50;;;;;;;10.37;8.10;;;;;;;;;;5045350;28;20938;-95
2021/04/19 13:12:17;;;;;;;10.03;8.40;;;;;;;;;;5043876;28;20451;-95
2021/04/19 13:14:43;;;;;;;8.33;7.47;;;;;;;;;;5044408;28;20463;-94
2021/04/19 13:17:10;;;;;;;7.30;6.60;;;;;;;;;;5044772;28;20478;-96
2021/04/19 13:19:36;;;;;;;7.40;6.63;;;;;;;;;;5045945;28;20466;-95
2021/04/19 13:22:02;;;;;;;7.07;6.30;;;;;;;;;;5042112;28;20467;-95
2021/04/19 13:24:28;;;;;;;6.27;5.70;;;;;;;;;;5052659;28;20491;-96
2021/04/19 13:26:55;;;;;;;8.53;7.70;;;;;;;;;;5049895;28;20462;-96
2021/04/19 13:29:38;;;;;;;9.10;7.50;;;;;;;;;;5046729;28;20478;-96
2021/04/19 13:32:19;;;;;;;7.97;7.17;;;;;;;;;;5054582;28;20438;-96
2021/04/19 13:35:20;;;;;;;;;;;;;;;;;;;;;
2021/04/19 13:37:48;;;;;;;9.57;7.77;;;;;;;;;;5037478;28;20913;-96
2021/04/19 13:40:15;;;;;;;9.30;8.40;;;;;;;;;;5049583;28;20451;-96
2021/04/19 13:42:41;;;;;;;8.90;7.87;;;;;;;;;;5045829;28;20969;-96
2021/04/19 13:45:08;;;;;;;7.70;6.77;;;;;;;;;;5046461;28;20816;-95
2021/04/19 13:47:34;;;;;;;9.53;8.53;;;;;;;;;;5043480;28;20474;-96
2021/04/19 13:50:04;;;;;;;8.67;7.47;;;;;;;;;;5050561;28;20504;-96
2021/04/19 13:52:30;;;;;;;9.50;7.50;;;;;;;;;;5044213;28;20450;-96
2021/04/19 13:54:57;;;;;;;9.30;8.13;;;;;;;;;;5043054;28;20489;-93
2021/04/19 13:57:23;;;;;;;8.43;7.53;;;;;;;;;;5043355;28;20494;-94
2021/04/19 13:59:50;;;;;;;6.10;5.60;;;;;;;;;;5043450;28;20451;-94
2021/04/19 14:02:16;;;;;;;7.27;6.43;;;;;;;;;;5042194;28;20485;-94
2021/04/19 14:04:45;;;;;;;8.27;7.47;;;;;;;;;;5042514;28;20450;-95
2021/04/19 14:07:11;;;;;;;9.40;7.70;;;;;;;;;;5042520;28;20483;-92
2021/04/19 14:09:37;;;;;;;8.77;7.87;;;;;;;;;;5042751;28;20522;-93
2021/04/19 14:12:04;;;;;;;8.47;7.63;;;;;;;;;;5042807;28;20909;-94
2021/04/19 14:14:31;;;;;;;7.03;6.33;;;;;;;;;;5042218;28;20461;-95
2021/04/19 14:16:57;;;;;;;6.90;6.03;;;;;;;;;;5040067;28;20518;-96
2021/04/19 14:19:41;;;;;;;7.63;6.40;;;;;;;;;;5045118;28;20442;-96
2021/04/19 14:22:07;;;;;;;6.20;5.20;;;;;;;;;;5043315;28;20473;-96
2021/04/19 14:24:34;;;;;;;7.30;6.60;;;;;;;;;;5041540;28;20449;-95
2021/04/19 14:27:00;;;;;;;7.33;6.63;;;;;;;;;;5043596;28;20466;-96
2021/04/19 14:29:27;;;;;;;7.67;6.97;;;;;;;;;;5043636;28;20459;-96
2021/04/19 14:31:53;;;;;;;7.10;6.40;;;;;;;;;;5042637;28;20508;-96
2021/04/19 14:34:19;;;;;;;7.23;6.50;;;;;;;;;;5041899;28;20455;-96
2021/04/19 14:36:46;;;;;;;8.70;6.87;;;;;;;;;;5043517;28;20520;-96
2021/04/19 14:39:12;;;;;;;10.80;6.23;;;;;;;;;;5042316;28;20969;-96
2021/04/19 14:41:38;;;;;;;7.10;6.37;;;;;;;;;;5043653;28;20462;-94
2021/04/19 14:44:05;;;;;;;6.80;6.10;;;;;;;;;;5042935;28;20450;-94
2021/04/19 14:46:32;;;;;;;7.53;6.67;;;;;;;;;;5042376;28;20458;-95
2021/04/19 14:48:58;;;;;;;8.60;7.33;;;;;;;;;;5042121;28;20494;-94
2021/04/19 14:51:25;;;;;;;7.80;7.00;;;;;;;;;;5039988;28;20474;-95